Terminal Aerodrome Forecast
Issued by NWS

Current Version | Previous Version | Text Only | Print | Product List | Glossary On
Versions: 1 2 3 4 5 6 7 8 9 10 11 12 13 14 15 16 17 18
000
FTUS41 KBTV 221130
TAFMSS
TAF
KMSS 221130Z 2212/2312 04011KT P6SM OVC020
     FM222200 04011G21KT P6SM -RA OVC015
     FM230000 04010G20KT 3SM -RA BR OVC010=

USA.gov is the U.S. government's official web portal to all federal, state and local government web resources and services.